Time;durP1;ratioP1;P1;durP2;ratioP2;P2;SDS_P1;SDS_P2;PMS_P1;PMS_P2;Temp;Humidity;BMP_temperature;BMP_pressure;BME280_temperature;BME280_humidity;BME280_pressure;Samples;Min_cycle;Max_cycle;Signal;HPM_P1;HPM_P2
2022/10/15 00:00:46;;;;;;;16.95;10.70;;;13.90;99.90;;;;;;5038246;28;20128;-88
2022/10/15 00:03:13;;;;;;;15.75;11.10;;;13.90;99.90;;;;;;5055227;28;20488;-88
2022/10/15 00:05:42;;;;;;;19.83;12.10;;;13.90;99.90;;;;;;5055066;28;20259;-87
2022/10/15 00:08:12;;;;;;;19.63;14.18;;;13.90;99.90;;;;;;5055103;28;20119;-87
2022/10/15 00:10:40;;;;;;;27.63;17.13;;;13.90;99.90;;;;;;5069088;22;20036;-74
2022/10/15 00:13:06;;;;;;;24.38;16.60;;;13.90;99.90;;;;;;5072786;28;20082;-74
2022/10/15 00:15:35;;;;;;;24.42;15.93;;;13.90;99.90;;;;;;5072744;28;20031;-73
2022/10/15 00:18:01;;;;;;;22.85;15.02;;;13.90;99.90;;;;;;5073023;28;20028;-74
2022/10/15 00:20:27;;;;;;;20.83;13.40;;;13.80;99.90;;;;;;5072611;28;20439;-73
2022/10/15 00:22:53;;;;;;;19.73;13.73;;;13.80;99.90;;;;;;5071989;28;20029;-74
2022/10/15 00:25:19;;;;;;;18.10;13.20;;;13.80;99.90;;;;;;5072627;28;20020;-74
2022/10/15 00:27:45;;;;;;;21.08;13.10;;;13.80;99.90;;;;;;5072648;28;20086;-74
2022/10/15 00:30:11;;;;;;;18.08;12.77;;;13.80;99.90;;;;;;5072323;28;20021;-73
2022/10/15 00:32:37;;;;;;;21.25;12.98;;;13.80;99.90;;;;;;5072375;28;20127;-74
2022/10/15 00:35:05;;;;;;;21.58;13.88;;;13.80;99.90;;;;;;5054671;28;20530;-74
2022/10/15 00:37:31;;;;;;;25.60;16.20;;;13.70;99.90;;;;;;5054384;28;20550;-74
2022/10/15 00:39:57;;;;;;;22.08;14.20;;;13.70;99.90;;;;;;5072247;28;20021;-74
2022/10/15 00:42:23;;;;;;;19.90;15.32;;;13.70;99.90;;;;;;5054652;28;20032;-74
2022/10/15 00:44:58;;;;;;;19.48;14.75;;;13.70;99.90;;;;;;5072292;28;20028;-74
2022/10/15 00:47:40;;;;;;;19.80;14.18;;;13.70;99.90;;;;;;5054628;28;20059;-73
2022/10/15 00:50:17;;;;;;;21.23;13.90;;;13.70;99.90;;;;;;5054696;28;20443;-73
2022/10/15 00:53:05;;;;;;;18.83;12.35;;;13.70;99.90;;;;;;5071975;28;20036;-74
2022/10/15 00:55:35;;;;;;;19.98;12.38;;;13.60;99.90;;;;;;5047414;28;20382;-74
2022/10/15 00:58:05;;;;;;;18.10;11.82;;;13.60;99.90;;;;;;5072112;28;20032;-73
2022/10/15 01:00:32;;;;;;;15.73;12.05;;;13.60;99.90;;;;;;5053808;28;20025;-73
2022/10/15 01:02:59;;;;;;;18.48;11.65;;;13.60;99.90;;;;;;5053791;28;20052;-73
2022/10/15 01:05:25;;;;;;;18.52;11.23;;;13.50;99.90;;;;;;5071874;28;20508;-73
2022/10/15 01:07:51;;;;;;;15.27;10.88;;;13.50;99.90;;;;;;5053625;28;20024;-73
2022/10/15 01:10:19;;;;;;;19.15;10.70;;;13.50;99.90;;;;;;5071420;28;20036;-73
2022/10/15 01:13:05;;;;;;;14.73;9.85;;;13.50;99.90;;;;;;5071471;28;20037;-73
2022/10/15 01:15:56;;;;;;;16.85;10.90;;;13.50;99.90;;;;;;5053669;28;20056;-73
2022/10/15 01:18:35;;;;;;;14.50;9.32;;;13.40;99.90;;;;;;5053654;28;20032;-73
2022/10/15 01:21:10;;;;;;;16.08;10.75;;;13.40;99.90;;;;;;5071538;28;20107;-73
2022/10/15 01:24:04;;;;;;;15.40;10.18;;;13.40;99.90;;;;;;5053990;28;20047;-73
2022/10/15 01:26:39;;;;;;;14.20;9.45;;;13.40;99.90;;;;;;5053342;28;20024;-73
2022/10/15 01:29:23;;;;;;;15.77;9.90;;;13.40;99.90;;;;;;5053328;28;20032;-73
2022/10/15 01:32:05;;;;;;;14.32;10.80;;;13.40;99.90;;;;;;5071291;28;20507;-74
2022/10/15 01:35:22;;;;;;;14.60;9.98;;;13.30;99.90;;;;;;5052846;28;20028;-73
2022/10/15 01:38:11;;;;;;;13.52;9.70;;;13.30;99.90;;;;;;5012276;28;20521;-73
2022/10/15 01:41:02;;;;;;;12.73;8.85;;;13.30;99.90;;;;;;5011910;28;20029;-73
2022/10/15 01:43:36;;;;;;;16.08;9.50;;;13.30;99.90;;;;;;5048819;28;20131;-73
2022/10/15 01:46:38;;;;;;;14.75;8.95;;;13.30;99.90;;;;;;5053087;28;20119;-73
2022/10/15 01:49:10;;;;;;;15.07;9.63;;;13.30;99.90;;;;;;5071030;28;20036;-73
2022/10/15 01:51:38;;;;;;;;;;;13.30;99.90;;;;;;5053294;28;20032;-73
2022/10/15 01:54:08;;;;;;;15.15;9.32;;;13.30;99.90;;;;;;5053018;28;20006;-73
2022/10/15 01:56:36;;;;;;;14.02;9.43;;;13.30;99.90;;;;;;5071056;28;20054;-73
2022/10/15 01:59:04;;;;;;;14.00;10.18;;;13.30;99.90;;;;;;5052785;28;20028;-73
2022/10/15 02:01:30;;;;;;;14.32;9.82;;;13.30;99.90;;;;;;5070846;28;20085;-73
2022/10/15 02:03:56;;;;;;;18.08;10.40;;;13.30;99.90;;;;;;5052903;28;20511;-73
2022/10/15 02:06:41;;;;;;;13.13;9.68;;;13.30;99.90;;;;;;5052766;28;20340;-73
2022/10/15 02:09:18;;;;;;;13.23;8.98;;;13.30;99.90;;;;;;5070669;28;20086;-73
2022/10/15 02:12:22;;;;;;;14.43;9.30;;;13.30;99.90;;;;;;5052885;28;20039;-73
2022/10/15 02:15:17;;;;;;;13.13;9.52;;;13.30;99.90;;;;;;5036222;28;20057;-73
2022/10/15 02:18:06;;;;;;;16.02;9.93;;;13.30;99.90;;;;;;5070793;28;20036;-73
2022/10/15 02:20:50;;;;;;;17.10;9.10;;;13.30;99.90;;;;;;5052427;28;20397;-73
2022/10/15 02:23:31;;;;;;;13.98;9.77;;;13.30;99.90;;;;;;5052685;28;20034;-73
2022/10/15 02:26:05;;;;;;;13.15;9.65;;;13.30;99.90;;;;;;5052713;28;20111;-73
2022/10/15 02:28:34;;;;;;;17.13;9.95;;;13.30;99.90;;;;;;5070537;28;20028;-73
2022/10/15 02:31:02;;;;;;;15.85;10.40;;;13.40;99.90;;;;;;5052616;28;20554;-73
2022/10/15 02:33:30;;;;;;;14.88;10.35;;;13.40;99.90;;;;;;5052587;28;20051;-73
2022/10/15 02:35:57;;;;;;;15.52;10.65;;;13.40;99.90;;;;;;5052419;28;20025;-73
2022/10/15 02:38:26;;;;;;;14.30;10.43;;;13.30;99.90;;;;;;5070606;28;20025;-73
2022/10/15 02:40:53;;;;;;;15.90;11.20;;;13.30;99.90;;;;;;5052483;28;20075;-73
2022/10/15 02:43:21;;;;;;;17.63;10.75;;;13.30;99.90;;;;;;5052541;28;20063;-73
2022/10/15 02:45:49;;;;;;;13.00;9.90;;;13.40;99.90;;;;;;5070465;28;20060;-73
2022/10/15 02:48:16;;;;;;;15.93;11.70;;;13.40;99.90;;;;;;5056416;28;20029;-74
2022/10/15 02:50:42;;;;;;;15.93;11.27;;;13.40;99.90;;;;;;5074619;28;20043;-73
2022/10/15 02:53:08;;;;;;;17.63;11.02;;;13.40;99.90;;;;;;5074176;28;20064;-73
2022/10/15 02:55:35;;;;;;;18.65;12.07;;;13.40;99.90;;;;;;5056314;28;20101;-73
2022/10/15 02:58:01;;;;;;;22.20;11.77;;;13.40;99.90;;;;;;5056462;28;20477;-73
2022/10/15 03:00:28;;;;;;;15.77;11.07;;;13.40;99.90;;;;;;5055907;28;20052;-73
2022/10/15 03:02:55;;;;;;;16.25;11.27;;;13.40;99.90;;;;;;5039643;28;20072;-73
2022/10/15 03:05:21;;;;;;;16.45;11.65;;;13.40;99.90;;;;;;5056179;28;20029;-73
2022/10/15 03:07:47;;;;;;;15.82;10.88;;;13.40;99.90;;;;;;5056110;28;20115;-73
2022/10/15 03:10:14;;;;;;;17.30;11.75;;;13.40;99.90;;;;;;5055775;28;20033;-73
2022/10/15 03:12:40;;;;;;;16.60;11.77;;;13.50;99.90;;;;;;5056007;28;20029;-73
2022/10/15 03:15:07;;;;;;;19.55;12.80;;;13.50;99.90;;;;;;5039457;28;20478;-73
2022/10/15 03:17:34;;;;;;;17.65;13.07;;;13.40;99.90;;;;;;5056078;28;20028;-73
2022/10/15 03:20:01;;;;;;;17.92;13.07;;;13.50;99.90;;;;;;5055842;28;20489;-73
2022/10/15 03:22:28;;;;;;;15.93;12.82;;;13.40;99.90;;;;;;5055870;28;20032;-73
2022/10/15 03:24:54;;;;;;;17.67;12.32;;;13.40;99.90;;;;;;5074217;28;20039;-73
2022/10/15 03:27:26;;;;;;;17.23;12.68;;;13.40;99.90;;;;;;5055627;28;20457;-73
2022/10/15 03:29:52;;;;;;;17.88;12.98;;;13.40;99.90;;;;;;5055706;28;20025;-73
2022/10/15 03:32:22;;;;;;;16.55;12.35;;;13.40;99.90;;;;;;5055742;28;20063;-73
2022/10/15 03:34:48;;;;;;;20.90;14.82;;;13.40;99.90;;;;;;5055781;28;20481;-73
2022/10/15 03:37:16;;;;;;;18.67;13.35;;;13.40;99.90;;;;;;5055587;28;20113;-73
2022/10/15 03:39:42;;;;;;;19.90;13.98;;;13.40;99.90;;;;;;5055294;28;20024;-73
2022/10/15 03:42:09;;;;;;;22.17;13.90;;;13.40;99.90;;;;;;5055489;28;20032;-73
2022/10/15 03:44:43;;;;;;;18.15;13.80;;;13.40;99.90;;;;;;5073659;28;20039;-73
2022/10/15 03:47:12;;;;;;;16.83;12.60;;;13.40;99.90;;;;;;5055319;28;20036;-73
2022/10/15 03:49:43;;;;;;;19.02;12.93;;;13.40;99.90;;;;;;5055168;28;20035;-73
2022/10/15 03:52:09;;;;;;;16.27;12.77;;;13.40;99.90;;;;;;5055394;28;20430;-73
2022/10/15 03:54:35;;;;;;;16.85;13.20;;;13.50;99.90;;;;;;5055348;28;20442;-73
2022/10/15 03:57:01;;;;;;;18.90;13.73;;;13.50;99.90;;;;;;5055154;28;20024;-73
2022/10/15 03:59:32;;;;;;;20.25;15.07;;;13.50;99.90;;;;;;5053931;28;20074;-73
2022/10/15 04:02:01;;;;;;;19.08;13.98;;;13.50;99.90;;;;;;5055258;28;20075;-74
2022/10/15 04:04:28;;;;;;;17.08;12.93;;;13.40;99.90;;;;;;5055126;28;20060;-73
2022/10/15 04:06:54;;;;;;;19.50;13.90;;;13.50;99.90;;;;;;5054990;28;20063;-73
2022/10/15 04:09:20;;;;;;;18.58;13.65;;;13.50;99.90;;;;;;5054837;28;20037;-73
2022/10/15 04:11:47;;;;;;;19.27;14.10;;;13.50;99.90;;;;;;5054905;28;20043;-73
2022/10/15 04:14:13;;;;;;;19.67;14.82;;;13.50;99.90;;;;;;5055022;28;20370;-73
2022/10/15 04:16:39;;;;;;;21.65;15.20;;;13.50;99.90;;;;;;5054895;28;20031;-73
2022/10/15 04:19:13;;;;;;;19.60;14.27;;;13.40;99.90;;;;;;5054602;28;20024;-73
2022/10/15 04:21:40;;;;;;;22.33;16.27;;;13.50;99.90;;;;;;5054592;28;20031;-73
2022/10/15 04:24:07;;;;;;;19.52;13.27;;;13.50;99.90;;;;;;5054786;28;20028;-73
2022/10/15 04:26:37;;;;;;;21.25;16.15;;;13.50;99.90;;;;;;5054684;28;20599;-73
2022/10/15 04:29:03;;;;;;;21.10;15.43;;;13.50;99.90;;;;;;5072457;28;20485;-73
2022/10/15 04:31:30;;;;;;;21.90;16.40;;;13.50;99.90;;;;;;5054582;28;20124;-73
2022/10/15 04:33:57;;;;;;;20.70;15.82;;;13.50;99.90;;;;;;5054499;28;20554;-73
2022/10/15 04:36:24;;;;;;;22.30;14.48;;;13.50;99.90;;;;;;5054544;28;20024;-73
2022/10/15 04:39:05;;;;;;;21.27;15.82;;;13.50;99.90;;;;;;5054391;28;20032;-73
2022/10/15 04:41:37;;;;;;;20.05;14.85;;;13.50;99.90;;;;;;5054304;28;20032;-73
2022/10/15 04:44:09;;;;;;;24.25;15.48;;;13.60;99.90;;;;;;5054745;28;20393;-73
2022/10/15 04:46:36;;;;;;;21.30;15.05;;;13.60;99.90;;;;;;5054171;28;20576;-73
2022/10/15 04:49:18;;;;;;;21.85;15.70;;;13.60;99.90;;;;;;5054152;28;20039;-73
2022/10/15 04:51:44;;;;;;;19.27;14.52;;;13.60;99.90;;;;;;5054083;28;20163;-73
2022/10/15 04:54:18;;;;;;;23.65;15.40;;;13.60;99.90;;;;;;5054075;28;20071;-73
2022/10/15 04:56:58;;;;;;;20.05;14.27;;;13.60;99.90;;;;;;5053899;28;20480;-73
2022/10/15 04:59:24;;;;;;;21.65;15.63;;;13.60;99.90;;;;;;5071741;28;20017;-73
2022/10/15 05:02:09;;;;;;;20.42;15.40;;;13.60;99.90;;;;;;5071850;28;20077;-73
2022/10/15 05:04:36;;;;;;;22.05;15.43;;;13.60;99.90;;;;;;5053998;28;20447;-73
2022/10/15 05:07:02;;;;;;;22.75;16.02;;;13.60;99.90;;;;;;5053898;28;20592;-73
2022/10/15 05:09:30;;;;;;;19.85;15.27;;;13.60;99.90;;;;;;5053273;28;20028;-73
2022/10/15 05:11:57;;;;;;;21.75;14.23;;;13.60;99.90;;;;;;5053824;28;20090;-73
2022/10/15 05:14:25;;;;;;;22.75;15.60;;;13.60;99.90;;;;;;5053777;28;20090;-73
2022/10/15 05:17:04;;;;;;;20.23;15.27;;;13.60;99.90;;;;;;5053693;28;20386;-73
2022/10/15 05:19:34;;;;;;;23.27;16.35;;;13.60;99.90;;;;;;5053511;28;20071;-73
2022/10/15 05:22:01;;;;;;;22.17;17.15;;;13.60;99.90;;;;;;5053449;28;20052;-73
2022/10/15 05:24:29;;;;;;;25.48;17.80;;;13.50;99.90;;;;;;5053548;28;20024;-73
2022/10/15 05:27:00;;;;;;;27.52;18.15;;;13.50;99.90;;;;;;5053557;28;20115;-73
2022/10/15 05:29:29;;;;;;;21.70;14.95;;;13.50;99.90;;;;;;5053448;28;20028;-73
2022/10/15 05:31:55;;;;;;;24.95;16.25;;;13.50;99.90;;;;;;5071435;28;20047;-73
2022/10/15 05:34:29;;;;;;;22.88;16.05;;;13.60;99.90;;;;;;5053300;28;20075;-73
2022/10/15 05:37:01;;;;;;;24.35;17.08;;;13.50;99.90;;;;;;5053426;28;20024;-73
2022/10/15 05:39:27;;;;;;;26.58;17.13;;;13.50;99.90;;;;;;5053187;28;20047;-73
2022/10/15 05:41:54;;;;;;;25.75;17.40;;;13.50;99.90;;;;;;5071190;28;20143;-73
2022/10/15 05:44:28;;;;;;;21.13;16.02;;;13.50;99.90;;;;;;5053374;28;20052;-73
2022/10/15 05:46:54;;;;;;;21.58;14.93;;;13.40;99.90;;;;;;5053053;28;20482;-73
2022/10/15 05:49:22;;;;;;;21.15;14.60;;;13.50;99.90;;;;;;5053110;28;20039;-73
2022/10/15 05:52:02;;;;;;;23.50;16.30;;;13.50;99.90;;;;;;5053149;28;20028;-73
2022/10/15 05:54:45;;;;;;;182.23;35.30;;;13.50;99.90;;;;;;5053048;28;20032;-73
2022/10/15 05:57:11;;;;;;;121.85;30.90;;;13.50;99.90;;;;;;5071001;28;20028;-73
2022/10/15 05:59:37;;;;;;;97.88;26.95;;;13.50;99.90;;;;;;5070849;28;20037;-73
2022/10/15 06:02:03;;;;;;;43.65;17.85;;;13.50;99.90;;;;;;5053004;28;20295;-73
2022/10/15 06:04:31;;;;;;;24.77;16.25;;;13.50;99.90;;;;;;5071267;28;20029;-73
2022/10/15 06:06:57;;;;;;;24.33;15.48;;;13.50;99.90;;;;;;5070859;28;20383;-73
2022/10/15 06:12:04;;;;;;;21.30;14.10;;;13.60;99.90;;;;;;5088224;28;20059;-70
2022/10/15 06:14:30;;;;;;;25.10;15.55;;;13.60;99.90;;;;;;5091234;28;20472;-70
2022/10/15 06:16:56;;;;;;;23.48;15.65;;;13.60;99.90;;;;;;5091126;28;20039;-70
2022/10/15 06:19:22;;;;;;;22.98;15.50;;;13.60;99.90;;;;;;5091118;28;20519;-70
2022/10/15 06:21:48;;;;;;;23.27;14.98;;;13.60;99.90;;;;;;5076368;28;20039;-70
2022/10/15 06:24:14;;;;;;;25.77;16.27;;;13.60;99.90;;;;;;5097984;28;20035;-70
2022/10/15 06:26:40;;;;;;;22.08;15.75;;;13.60;99.90;;;;;;5079594;28;20047;-70
2022/10/15 06:29:06;;;;;;;24.25;15.82;;;13.50;99.90;;;;;;5097806;28;20020;-69
2022/10/15 06:31:31;;;;;;;22.45;15.07;;;13.60;99.90;;;;;;5097976;28;20058;-70
2022/10/15 06:33:57;;;;;;;21.80;15.27;;;13.60;99.90;;;;;;5097881;28;20032;-70
2022/10/15 06:36:24;;;;;;;23.25;15.35;;;13.60;99.90;;;;;;5098054;28;20028;-70
2022/10/15 06:38:50;;;;;;;19.20;13.90;;;13.60;99.90;;;;;;5097568;28;20104;-70
2022/10/15 06:41:16;;;;;;;20.42;14.35;;;13.60;99.90;;;;;;5097574;28;20453;-70
2022/10/15 06:43:43;;;;;;;20.52;13.20;;;13.70;99.90;;;;;;5097672;28;20071;-70
2022/10/15 06:46:09;;;;;;;129.82;28.40;;;13.70;99.90;;;;;;5097500;28;20065;-71
2022/10/15 06:48:35;;;;;;;100.13;25.38;;;13.70;99.90;;;;;;5097522;28;20032;-71
2022/10/15 06:51:02;;;;;;;164.75;30.67;;;13.70;99.90;;;;;;5097652;28;20115;-70
2022/10/15 06:53:28;;;;;;;56.35;20.27;;;13.80;99.90;;;;;;5097311;28;20062;-71
2022/10/15 06:55:59;;;;;;;30.10;17.70;;;13.70;99.90;;;;;;5097419;28;20515;-70
2022/10/15 06:58:27;;;;;;;59.17;19.83;;;13.70;99.90;;;;;;5097520;28;20028;-70
2022/10/15 07:01:02;;;;;;;51.80;19.88;;;13.80;99.90;;;;;;5097392;28;20578;-70
2022/10/15 07:03:28;;;;;;;50.67;19.95;;;13.80;99.90;;;;;;5097523;28;20039;-70
2022/10/15 07:05:55;;;;;;;64.20;20.00;;;13.80;99.90;;;;;;5097417;28;20028;-70
2022/10/15 07:08:20;;;;;;;66.53;19.45;;;13.90;99.90;;;;;;5097283;28;20032;-70
2022/10/15 07:10:46;;;;;;;47.17;19.73;;;13.90;99.90;;;;;;5097179;28;20404;-70
2022/10/15 07:13:13;;;;;;;39.05;19.33;;;13.90;99.90;;;;;;5097855;28;20043;-70
2022/10/15 07:15:39;;;;;;;43.97;19.90;;;13.90;99.90;;;;;;5097581;28;20504;-70
2022/10/15 07:18:05;;;;;;;34.55;18.90;;;13.90;99.90;;;;;;5097509;28;20028;-70
2022/10/15 07:20:31;;;;;;;41.60;20.98;;;14.00;99.90;;;;;;5097160;28;20035;-70
2022/10/15 07:23:01;;;;;;;33.08;19.40;;;14.00;99.90;;;;;;5097173;28;20085;-70
2022/10/15 07:25:30;;;;;;;40.10;20.77;;;14.00;99.90;;;;;;5097323;28;20031;-70
2022/10/15 07:27:56;;;;;;;28.20;18.73;;;14.00;99.90;;;;;;5097104;28;20024;-70
2022/10/15 07:30:26;;;;;;;29.77;18.27;;;14.10;99.90;;;;;;5097051;28;20426;-70
2022/10/15 07:32:54;;;;;;;33.25;19.50;;;14.10;99.90;;;;;;5077971;28;20492;-71
2022/10/15 07:35:20;;;;;;;32.75;20.52;;;14.10;99.90;;;;;;5094037;28;20086;-70
2022/10/15 07:37:46;;;;;;;27.98;18.67;;;14.10;99.90;;;;;;5094025;28;20024;-69
2022/10/15 07:40:12;;;;;;;30.33;19.38;;;14.10;99.90;;;;;;5093896;28;20051;-70
2022/10/15 07:42:40;;;;;;;27.85;16.92;;;14.10;99.90;;;;;;5094037;28;20020;-70
2022/10/15 07:45:07;;;;;;;24.60;16.20;;;14.10;99.90;;;;;;5093939;28;20388;-70
2022/10/15 07:47:33;;;;;;;28.08;18.48;;;14.10;99.90;;;;;;5093735;28;20027;-71
2022/10/15 07:49:58;;;;;;;26.92;16.77;;;14.10;99.90;;;;;;5093499;28;20032;-70
2022/10/15 07:52:24;;;;;;;27.98;18.38;;;14.10;99.90;;;;;;5075745;28;20036;-70
2022/10/15 07:54:50;;;;;;;30.00;18.77;;;14.20;99.90;;;;;;5093705;28;20062;-70
2022/10/15 07:57:21;;;;;;;26.75;17.55;;;14.20;99.90;;;;;;5093906;28;20107;-70
2022/10/15 07:59:47;;;;;;;33.08;19.40;;;14.20;99.90;;;;;;5093896;28;20395;-70
2022/10/15 08:02:17;;;;;;;27.75;17.83;;;14.20;99.90;;;;;;5093952;28;20035;-70
2022/10/15 08:04:43;;;;;;;29.48;18.40;;;14.20;99.90;;;;;;5093611;28;20028;-71
2022/10/15 08:07:09;;;;;;;32.35;19.08;;;14.20;99.90;;;;;;5093509;28;20032;-71
2022/10/15 08:09:35;;;;;;;31.10;19.35;;;14.20;99.90;;;;;;5093413;28;20031;-70
2022/10/15 08:12:00;;;;;;;39.17;20.42;;;14.30;99.90;;;;;;5093267;28;20069;-70
2022/10/15 08:14:26;;;;;;;34.25;21.27;;;14.30;99.90;;;;;;5093740;28;20032;-70
2022/10/15 08:16:52;;;;;;;32.80;21.02;;;14.30;99.90;;;;;;5093037;28;20462;-69
2022/10/15 08:19:18;;;;;;;36.28;19.95;;;14.30;99.90;;;;;;5093227;28;20028;-70
2022/10/15 08:21:44;;;;;;;35.53;20.27;;;14.30;99.90;;;;;;5093171;28;20050;-70
2022/10/15 08:24:11;;;;;;;32.20;20.25;;;14.30;99.90;;;;;;5093074;28;20426;-70
2022/10/15 08:26:37;;;;;;;36.22;22.30;;;14.30;99.90;;;;;;5092989;28;20030;-69
2022/10/15 08:29:03;;;;;;;32.00;20.08;;;14.40;99.90;;;;;;5092760;28;20107;-70
2022/10/15 08:31:30;;;;;;;26.67;16.55;;;14.40;99.90;;;;;;5092967;28;20107;-70
2022/10/15 08:34:00;;;;;;;27.02;17.10;;;14.40;99.90;;;;;;5092778;28;20032;-70
2022/10/15 08:36:25;;;;;;;;;;;14.40;99.90;;;;;;5093264;28;20136;-70
2022/10/15 08:38:51;;;;;;;25.52;16.15;;;14.40;99.90;;;;;;5092588;28;19912;-70
2022/10/15 08:41:43;;;;;;;24.25;16.15;;;14.50;99.90;;;;;;5092680;28;20032;-70
2022/10/15 08:44:30;;;;;;;20.05;13.75;;;14.50;99.90;;;;;;5092243;28;20496;-69
2022/10/15 08:47:07;;;;;;;21.80;14.27;;;14.50;99.90;;;;;;5092576;28;20081;-70
2022/10/15 08:49:52;;;;;;;20.40;13.35;;;14.60;99.90;;;;;;5092516;28;20040;-70
2022/10/15 08:52:28;;;;;;;19.35;12.75;;;14.60;99.90;;;;;;5092550;28;20032;-70
2022/10/15 08:54:55;;;;;;;15.68;11.35;;;14.60;99.90;;;;;;5092394;28;20111;-70
2022/10/15 08:57:34;;;;;;;16.95;11.43;;;14.70;99.90;;;;;;5092683;28;20039;-70
2022/10/15 09:00:02;;;;;;;18.63;11.52;;;14.70;99.90;;;;;;5074134;28;20050;-70
2022/10/15 09:02:58;;;;;;;14.68;10.23;;;14.70;99.90;;;;;;5092339;28;20432;-70
2022/10/15 09:05:46;;;;;;;16.77;10.30;;;14.80;99.90;;;;;;5073798;28;20040;-70
2022/10/15 09:08:23;;;;;;;12.82;9.40;;;14.70;99.90;;;;;;5092587;28;20039;-70
2022/10/15 09:10:51;;;;;;;13.20;8.82;;;14.80;99.90;;;;;;5091758;28;20032;-70
2022/10/15 09:13:22;;;;;;;12.23;8.40;;;14.80;99.90;;;;;;5091974;28;20485;-69
2022/10/15 09:15:52;;;;;;;13.27;7.82;;;14.80;99.90;;;;;;5092036;28;20537;-70
2022/10/15 09:18:24;;;;;;;11.68;7.80;;;14.80;99.90;;;;;;5092111;28;20030;-70
2022/10/15 09:20:51;;;;;;;9.57;6.60;;;14.90;99.90;;;;;;5091918;28;20035;-70
2022/10/15 09:23:21;;;;;;;8.60;6.40;;;14.90;99.90;;;;;;5092229;28;20027;-70
2022/10/15 09:25:58;;;;;;;7.65;5.05;;;14.90;99.90;;;;;;5091760;28;20105;-70
2022/10/15 09:28:36;;;;;;;6.25;4.15;;;14.90;99.90;;;;;;5092225;28;20101;-71
2022/10/15 09:31:02;;;;;;;7.97;4.55;;;14.90;99.90;;;;;;5073630;28;20106;-70
2022/10/15 09:33:56;;;;;;;6.15;4.00;;;15.00;99.90;;;;;;5091691;28;20031;-70
2022/10/15 09:36:37;;;;;;;5.72;2.80;;;15.00;99.90;;;;;;5091606;28;20020;-71
2022/10/15 09:39:31;;;;;;;5.22;3.28;;;15.00;99.90;;;;;;5091635;28;20055;-71
2022/10/15 09:42:06;;;;;;;5.03;2.92;;;15.10;99.90;;;;;;5091371;28;20044;-71
2022/10/15 09:44:41;;;;;;;4.68;2.38;;;15.10;99.90;;;;;;5091681;28;20040;-70
2022/10/15 09:47:33;;;;;;;4.97;2.40;;;15.20;99.90;;;;;;5091660;28;20471;-70
2022/10/15 09:50:00;;;;;;;3.58;2.15;;;15.20;99.90;;;;;;5091620;28;20039;-70
2022/10/15 09:52:51;;;;;;;3.45;2.10;;;15.20;99.90;;;;;;5091403;28;20392;-71
2022/10/15 09:55:36;;;;;;;4.45;2.25;;;15.20;99.90;;;;;;5091177;28;20140;-70
2022/10/15 09:58:24;;;;;;;6.05;2.00;;;15.30;99.90;;;;;;5073126;28;20027;-71
2022/10/15 10:01:04;;;;;;;2.90;1.80;;;15.30;99.90;;;;;;5091062;28;20468;-71
2022/10/15 10:03:36;;;;;;;3.45;1.88;;;15.40;99.90;;;;;;5091217;28;20032;-70
2022/10/15 10:06:10;;;;;;;4.05;2.33;;;15.40;99.90;;;;;;5056534;28;20098;-71
2022/10/15 10:08:46;;;;;;;3.28;1.70;;;15.40;99.90;;;;;;5091202;28;20035;-71
2022/10/15 10:11:12;;;;;;;2.80;1.50;;;15.40;99.90;;;;;;5090897;28;20077;-70
2022/10/15 10:13:49;;;;;;;2.55;1.40;;;15.40;99.90;;;;;;5091214;28;20377;-70
2022/10/15 10:16:17;;;;;;;2.40;1.25;;;15.40;99.90;;;;;;5091243;28;20028;-71
2022/10/15 10:19:00;;;;;;;2.72;1.10;;;15.50;99.90;;;;;;5073272;28;20089;-71
2022/10/15 10:21:34;;;;;;;2.33;1.40;;;15.50;99.90;;;;;;5091123;28;20024;-69
2022/10/15 10:24:24;;;;;;;1.90;1.05;;;15.50;99.90;;;;;;5091503;28;20070;-70
2022/10/15 10:26:50;;;;;;;0.90;0.73;;;15.60;99.90;;;;;;5091154;28;20028;-70
2022/10/15 10:29:19;;;;;;;1.58;0.90;;;15.60;99.90;;;;;;5091024;28;20040;-70
2022/10/15 10:31:50;;;;;;;2.42;1.20;;;15.60;99.90;;;;;;5090899;28;20487;-70
2022/10/15 10:34:30;;;;;;;2.75;1.13;;;15.60;99.90;;;;;;5090898;28;20070;-70
2022/10/15 10:37:01;;;;;;;2.55;1.02;;;15.60;99.90;;;;;;5090870;28;20028;-70
2022/10/15 10:39:32;;;;;;;1.70;1.10;;;15.70;99.90;;;;;;5090774;28;20020;-70
2022/10/15 10:42:04;;;;;;;2.78;1.20;;;15.60;99.90;;;;;;5090813;28;20032;-69
2022/10/15 10:44:45;;;;;;;2.80;1.38;;;15.60;99.90;;;;;;5091042;28;20282;-70
2022/10/15 10:47:14;;;;;;;2.03;1.20;;;15.70;99.90;;;;;;5090728;28;20496;-71
2022/10/15 10:49:42;;;;;;;1.77;1.20;;;15.60;99.90;;;;;;5091021;28;20032;-70
2022/10/15 10:52:36;;;;;;;2.03;1.20;;;15.60;99.90;;;;;;5090875;28;20028;-71
2022/10/15 10:55:07;;;;;;;2.65;1.52;;;15.60;99.90;;;;;;5090783;28;20120;-70
2022/10/15 10:57:44;;;;;;;2.50;1.40;;;15.60;99.90;;;;;;5090768;28;20032;-70
2022/10/15 11:00:16;;;;;;;3.58;1.50;;;15.50;99.90;;;;;;5091150;28;20051;-70
2022/10/15 11:02:46;;;;;;;3.08;1.65;;;15.50;99.90;;;;;;5090639;28;20567;-70
2022/10/15 11:05:12;;;;;;;2.35;1.60;;;15.50;99.90;;;;;;5090747;28;20102;-70
2022/10/15 11:07:58;;;;;;;2.95;1.60;;;15.50;99.90;;;;;;5092275;28;20097;-70
2022/10/15 11:10:49;;;;;;;7.13;2.08;;;15.50;99.90;;;;;;5094129;28;20036;-70
2022/10/15 11:13:31;;;;;;;3.47;1.70;;;15.50;99.90;;;;;;5083598;28;20488;-70
2022/10/15 11:16:05;;;;;;;2.75;1.63;;;15.50;99.90;;;;;;5094346;28;20070;-70
2022/10/15 11:18:51;;;;;;;3.03;1.58;;;15.50;99.90;;;;;;5094311;28;20035;-70
2022/10/15 11:21:20;;;;;;;2.80;1.60;;;15.50;99.90;;;;;;5094544;28;20443;-70
2022/10/15 11:24:18;;;;;;;2.65;1.80;;;15.50;99.90;;;;;;5076211;28;20078;-70
2022/10/15 11:26:55;;;;;;;3.28;1.80;;;15.60;99.90;;;;;;5085733;28;20035;-70
2022/10/15 11:29:53;;;;;;;2.47;1.50;;;15.60;99.90;;;;;;5094433;28;20395;-70
2022/10/15 11:32:40;;;;;;;6.10;5.05;;;15.60;99.90;;;;;;5094058;28;20036;-69
2022/10/15 11:35:24;;;;;;;4.32;3.00;;;15.60;99.90;;;;;;5093970;28;20465;-70
2022/10/15 11:38:07;;;;;;;2.55;1.67;;;15.70;99.90;;;;;;5093922;28;20103;-70
2022/10/15 11:41:10;;;;;;;2.65;1.73;;;15.70;99.90;;;;;;5093964;28;20169;-70
2022/10/15 11:44:09;;;;;;;3.20;1.60;;;15.70;99.90;;;;;;5093837;28;20484;-70
2022/10/15 11:46:45;;;;;;;1.73;1.25;;;15.70;99.90;;;;;;5094157;28;20032;-71
2022/10/15 11:49:38;;;;;;;3.28;1.77;;;15.80;99.90;;;;;;5094163;28;20094;-70
2022/10/15 11:52:21;;;;;;;1.65;1.20;;;15.80;99.90;;;;;;5093704;28;20035;-70
2022/10/15 11:55:00;;;;;;;3.65;1.85;;;15.80;99.90;;;;;;5093754;28;20055;-70
2022/10/15 11:57:28;;;;;;;5.88;1.80;;;15.80;99.90;;;;;;5093722;28;20422;-70
2022/10/15 12:00:08;;;;;;;3.97;1.70;;;15.80;99.90;;;;;;5075249;28;20043;-70
2022/10/15 12:02:38;;;;;;;2.30;1.40;;;15.80;99.90;;;;;;5093823;28;20028;-70
2022/10/15 12:05:09;;;;;;;3.92;1.92;;;15.90;99.90;;;;;;5093658;28;20028;-70
2022/10/15 12:07:44;;;;;;;2.45;1.60;;;15.90;99.90;;;;;;5093593;28;20028;-71
2022/10/15 12:10:11;;;;;;;2.25;1.55;;;15.90;99.90;;;;;;5093700;28;20056;-70
2022/10/15 12:12:37;;;;;;;6.65;2.05;;;15.80;99.90;;;;;;5091438;22;20133;-73
2022/10/15 12:15:27;;;;;;;4.03;1.60;;;15.80;99.90;;;;;;5073182;28;20036;-73
2022/10/15 12:18:33;;;;;;;2.60;1.40;;;15.80;99.90;;;;;;5055110;28;20043;-73
2022/10/15 12:20:59;;;;;;;3.85;1.80;;;15.80;99.90;;;;;;5073079;28;20056;-73
2022/10/15 12:23:38;;;;;;;2.70;1.58;;;15.80;99.90;;;;;;5074470;28;20024;-74
2022/10/15 12:26:23;;;;;;;2.42;1.65;;;15.80;99.90;;;;;;5056784;28;20029;-76
2022/10/15 12:28:52;;;;;;;2.83;1.85;;;15.80;99.90;;;;;;5074621;28;20505;-74
2022/10/15 12:31:19;;;;;;;2.90;1.90;;;15.80;99.90;;;;;;5055039;28;20020;-74
2022/10/15 12:33:54;;;;;;;2.78;1.73;;;15.80;99.90;;;;;;5072943;28;20032;-74
2022/10/15 12:36:26;;;;;;;3.20;1.92;;;15.80;99.90;;;;;;5072770;28;20024;-73
2022/10/15 12:39:06;;;;;;;3.35;1.60;;;15.90;99.90;;;;;;5072667;28;20032;-74
2022/10/15 12:41:38;;;;;;;4.15;1.88;;;15.90;99.90;;;;;;5072850;28;20028;-74
2022/10/15 12:44:19;;;;;;;4.85;1.80;;;16.00;99.90;;;;;;5055343;28;20109;-76
2022/10/15 12:46:48;;;;;;;2.03;1.40;;;16.00;99.90;;;;;;5072705;28;20098;-74
2022/10/15 12:49:26;;;;;;;3.53;1.50;;;16.00;99.90;;;;;;5072858;28;20428;-74
2022/10/15 12:51:53;;;;;;;2.10;1.33;;;16.00;99.90;;;;;;5072694;28;20029;-74
2022/10/15 12:54:39;;;;;;;2.50;1.40;;;16.10;99.90;;;;;;5072596;28;20086;-77
2022/10/15 12:57:30;;;;;;;3.15;1.80;;;16.10;99.90;;;;;;5054696;28;20598;-74
2022/10/15 12:59:58;;;;;;;2.50;1.50;;;16.10;99.90;;;;;;5072388;28;20020;-75
2022/10/15 13:02:39;;;;;;;2.85;1.63;;;16.20;99.90;;;;;;5072512;28;20134;-73